createdAt,value
2018-06-12T00:01:03.577Z,7.77
2018-06-12T00:03:32.875Z,7.40
2018-06-12T00:06:03.393Z,9.60
2018-06-12T00:08:34.670Z,8.13
2018-06-12T00:11:04.463Z,7.63
2018-06-12T00:13:34.719Z,7.73
2018-06-12T00:16:04.422Z,8.00
2018-06-12T00:18:36.117Z,7.50
2018-06-12T00:21:06.000Z,7.80
2018-06-12T00:23:36.350Z,7.20
2018-06-12T00:26:07.008Z,7.97
2018-06-12T00:28:36.524Z,6.70
2018-06-12T00:31:06.374Z,7.47
2018-06-12T00:33:35.995Z,7.07
2018-06-12T00:36:05.716Z,6.90
2018-06-12T00:38:35.372Z,6.10
2018-06-12T00:41:05.105Z,6.77
2018-06-12T00:43:35.647Z,8.47
2018-06-12T00:46:05.331Z,6.43
2018-06-12T00:48:35.109Z,6.53
2018-06-12T00:51:04.473Z,6.40
2018-06-12T00:53:34.220Z,6.30
2018-06-12T00:56:05.253Z,6.20
2018-06-12T00:58:35.227Z,6.30
2018-06-12T01:01:05.049Z,7.00
2018-06-12T01:03:35.475Z,6.60
2018-06-12T01:06:05.331Z,6.63
2018-06-12T01:08:34.968Z,7.00
2018-06-12T01:11:06.142Z,7.93
2018-06-12T01:13:35.814Z,7.03
2018-06-12T01:16:06.335Z,6.70
2018-06-12T01:18:36.195Z,7.57
2018-06-12T01:21:06.756Z,7.53
2018-06-12T01:23:36.405Z,7.30
2018-06-12T01:26:06.103Z,7.73
2018-06-12T01:28:37.271Z,8.87
2018-06-12T01:31:06.958Z,7.73
2018-06-12T01:33:36.608Z,10.50
2018-06-12T01:36:06.290Z,8.00
2018-06-12T01:38:37.260Z,8.33
2018-06-12T01:41:07.057Z,8.30
2018-06-12T01:43:37.607Z,8.43
2018-06-12T01:46:08.522Z,9.70
2018-06-12T01:48:39.520Z,9.07
2018-06-12T01:51:09.219Z,8.90
2018-06-12T01:53:39.662Z,9.43
2018-06-12T01:56:09.300Z,9.17
2018-06-12T01:58:39.494Z,8.83
2018-06-12T02:01:10.124Z,9.90
2018-06-12T02:03:40.976Z,10.53
2018-06-12T02:06:15.331Z,10.63
2018-06-12T02:09:07.092Z,11.77
2018-06-12T02:17:09.376Z,9.60
2018-06-12T02:19:39.629Z,11.00
2018-06-12T02:22:10.118Z,9.10
2018-06-12T02:24:40.385Z,9.47
2018-06-12T02:27:10.095Z,9.07
2018-06-12T02:29:39.953Z,9.57
2018-06-12T02:32:09.597Z,8.70
2018-06-12T02:34:40.189Z,9.40
2018-06-12T02:37:11.624Z,8.13
2018-06-12T02:39:42.286Z,8.37
2018-06-12T02:42:12.804Z,7.37
2018-06-12T02:44:42.669Z,7.17
2018-06-12T02:47:12.785Z,7.50
2018-06-12T02:49:42.529Z,8.43
2018-06-12T02:52:14.001Z,7.23
2018-06-12T02:54:43.705Z,6.67
2018-06-12T02:57:13.439Z,8.00
2018-06-12T02:59:44.237Z,6.83
2018-06-12T03:02:15.933Z,6.90
2018-06-12T03:04:45.646Z,8.70
2018-06-12T03:07:15.483Z,8.47
2018-06-12T03:09:45.193Z,8.20
2018-06-12T03:12:14.840Z,7.17
2018-06-12T03:14:46.259Z,6.93
2018-06-12T03:17:19.134Z,7.90
2018-06-12T03:19:49.767Z,6.60
2018-06-12T03:22:20.513Z,7.07
2018-06-12T03:24:54.324Z,7.17
2018-06-12T03:27:24.557Z,8.90
2018-06-12T03:29:54.324Z,6.30
2018-06-12T03:32:24.198Z,7.63
2018-06-12T03:34:54.741Z,6.00
2018-06-12T03:37:33.406Z,6.93
2018-06-12T03:40:06.577Z,8.13
2018-06-12T03:42:37.015Z,7.57
2018-06-12T03:45:07.632Z,6.00
2018-06-12T03:47:38.337Z,5.83
2018-06-12T03:50:07.979Z,8.03
2018-06-12T03:52:37.745Z,8.20
2018-06-12T03:55:07.769Z,8.23
2018-06-12T03:57:38.377Z,9.37
2018-06-12T04:00:09.195Z,7.47
2018-06-12T04:02:39.751Z,7.10
2018-06-12T04:05:09.335Z,7.90
2018-06-12T04:07:39.104Z,8.30
2018-06-12T04:10:08.727Z,7.63
2018-06-12T04:12:38.458Z,8.67
2018-06-12T04:15:08.285Z,9.63
2018-06-12T04:17:38.108Z,9.67
2018-06-12T04:20:08.938Z,8.70
2018-06-12T04:22:38.787Z,9.63
2018-06-12T04:25:08.554Z,9.53
2018-06-12T04:27:38.259Z,9.60
2018-06-12T04:30:07.926Z,8.73
2018-06-12T04:32:37.629Z,11.30
2018-06-12T04:35:07.536Z,9.93
2018-06-12T04:37:37.168Z,9.20
2018-06-12T04:40:06.876Z,9.93
2018-06-12T04:42:37.503Z,10.40
2018-06-12T04:45:07.243Z,10.53
2018-06-12T04:47:36.904Z,10.27
2018-06-12T04:50:06.703Z,10.57
2018-06-12T04:52:36.977Z,12.60
2018-06-12T04:55:06.668Z,11.33
2018-06-12T04:57:36.272Z,11.10
2018-06-12T05:00:06.029Z,12.03
2018-06-12T05:02:35.672Z,12.60
2018-06-12T05:05:05.418Z,11.00
2018-06-12T05:07:35.268Z,8.60
2018-06-12T05:10:04.897Z,12.97
2018-06-12T05:12:34.612Z,12.33
2018-06-12T05:15:04.218Z,11.20
2018-06-12T05:17:34.124Z,12.40
2018-06-12T05:20:03.836Z,11.70
2018-06-12T05:22:33.460Z,9.20
2018-06-12T05:25:03.498Z,9.83
2018-06-12T05:27:33.361Z,12.63
2018-06-12T05:30:02.987Z,11.10
2018-06-12T05:32:32.753Z,10.00
2018-06-12T05:35:02.583Z,10.37
2018-06-12T05:37:32.469Z,9.80
2018-06-12T05:40:02.294Z,12.30
2018-06-12T05:42:32.062Z,11.00
2018-06-12T05:45:01.655Z,11.20
2018-06-12T05:47:32.110Z,12.47
2018-06-12T05:50:01.907Z,11.10
2018-06-12T05:52:31.925Z,11.00
2018-06-12T05:55:01.801Z,11.50
2018-06-12T05:57:31.527Z,11.20
2018-06-12T06:00:01.739Z,10.17
2018-06-12T06:02:31.509Z,9.97
2018-06-12T06:05:02.136Z,10.37
2018-06-12T06:07:31.877Z,10.77
2018-06-12T06:10:01.221Z,9.60
2018-06-12T06:12:30.857Z,12.40
2018-06-12T06:15:00.751Z,9.73
2018-06-12T06:17:30.786Z,9.67
2018-06-12T06:20:01.242Z,9.77
2018-06-12T06:22:31.022Z,7.77
2018-06-12T06:25:01.413Z,7.97
2018-06-12T06:27:32.918Z,10.67
2018-06-12T06:30:03.476Z,7.83
2018-06-12T06:32:33.141Z,10.87
2018-06-12T06:35:02.956Z,8.97
2018-06-12T06:37:33.386Z,9.17
2018-06-12T06:40:03.260Z,7.97
2018-06-12T06:42:33.047Z,7.73
2018-06-12T06:45:02.978Z,9.93
2018-06-12T06:47:32.811Z,6.90
2018-06-12T06:50:03.845Z,9.57
2018-06-12T06:52:35.558Z,7.47
2018-06-12T06:55:07.294Z,5.37
2018-06-12T06:57:36.982Z,6.47
2018-06-12T07:00:07.044Z,4.40
2018-06-12T07:02:36.765Z,5.27
2018-06-12T07:05:06.500Z,3.93
2018-06-12T07:07:36.644Z,4.83
2018-06-12T07:10:08.225Z,4.27
2018-06-12T07:12:38.818Z,2.97
2018-06-12T07:15:09.525Z,4.37
2018-06-12T07:17:39.874Z,4.30
2018-06-12T07:20:09.695Z,3.97
2018-06-12T07:22:40.550Z,6.50
2018-06-12T07:25:12.153Z,3.70
2018-06-12T07:27:41.968Z,4.13
2018-06-12T07:30:12.650Z,4.23
2018-06-12T07:32:42.344Z,8.10
2018-06-12T07:35:12.105Z,5.93
2018-06-12T07:37:41.903Z,3.90
2018-06-12T07:40:11.625Z,4.20
2018-06-12T07:42:41.550Z,4.97
2018-06-12T07:45:12.289Z,5.47
2018-06-12T07:47:43.672Z,4.37
2018-06-12T07:50:13.638Z,5.20
2018-06-12T07:52:44.245Z,4.53
2018-06-12T07:55:15.056Z,4.00
2018-06-12T07:57:44.862Z,4.53
2018-06-12T08:00:14.629Z,3.83
2018-06-12T08:02:45.122Z,3.97
2018-06-12T08:05:17.348Z,3.77
2018-06-12T08:07:46.922Z,3.70
2018-06-12T08:10:16.697Z,6.50
2018-06-12T08:12:46.519Z,4.37
2018-06-12T08:15:16.184Z,4.00
2018-06-12T08:17:46.107Z,5.30
2018-06-12T08:20:18.230Z,4.40
2018-06-12T08:22:48.415Z,4.37
2018-06-12T08:25:18.252Z,4.57
2018-06-12T08:27:48.724Z,6.43
2018-06-12T08:30:18.709Z,3.60
2018-06-12T08:32:48.920Z,3.73
2018-06-12T08:35:18.805Z,4.23
2018-06-12T08:37:48.877Z,4.67
2018-06-12T08:40:19.915Z,5.77
2018-06-12T08:42:50.283Z,4.83
2018-06-12T08:45:21.586Z,3.67
2018-06-12T08:47:52.460Z,2.90
2018-06-12T08:50:22.163Z,5.77
2018-06-12T08:52:52.628Z,5.03
2018-06-12T08:55:22.356Z,4.20
2018-06-12T08:57:52.637Z,4.93
2018-06-12T09:00:26.077Z,4.23
2018-06-12T09:02:56.180Z,5.10
2018-06-12T09:05:26.423Z,4.90
2018-06-12T09:07:57.424Z,6.03
2018-06-12T09:10:28.487Z,3.60
2018-06-12T09:12:58.757Z,4.53
2018-06-12T09:15:28.533Z,3.33
2018-06-12T09:17:58.530Z,4.43
2018-06-12T09:20:28.308Z,4.97
2018-06-12T09:22:58.145Z,5.83
2018-06-12T09:25:28.853Z,5.03
2018-06-12T09:27:59.626Z,3.87
2018-06-12T09:30:29.391Z,6.93
2018-06-12T09:32:59.050Z,4.60
2018-06-12T09:35:29.296Z,3.77
2018-06-12T09:37:59.136Z,6.43
2018-06-12T09:40:29.107Z,5.23
2018-06-12T09:42:59.371Z,4.60
2018-06-12T09:45:29.147Z,4.77
2018-06-12T09:47:58.937Z,6.63
2018-06-12T09:50:28.707Z,5.07
2018-06-12T09:52:59.253Z,4.30
2018-06-12T09:55:29.098Z,4.33
2018-06-12T09:57:59.007Z,4.90
2018-06-12T10:00:34.588Z,6.93
2018-06-12T10:03:04.661Z,4.97
2018-06-12T10:05:35.623Z,8.60
2018-06-12T10:08:06.949Z,6.30
2018-06-12T10:10:36.653Z,4.33
2018-06-12T10:13:07.139Z,6.17
2018-06-12T10:15:38.484Z,6.20
2018-06-12T10:18:08.188Z,4.47
2018-06-12T10:20:37.970Z,4.17
2018-06-12T10:23:08.330Z,4.53
2018-06-12T10:25:39.978Z,4.40
2018-06-12T10:28:10.135Z,3.57
2018-06-12T10:30:40.012Z,6.45
2018-06-12T10:33:10.568Z,8.23
2018-06-12T10:35:40.357Z,4.20
2018-06-12T10:38:10.076Z,5.23
2018-06-12T10:40:40.490Z,4.23
2018-06-12T10:43:10.398Z,6.03
2018-06-12T10:45:40.202Z,5.47
2018-06-12T10:48:10.580Z,4.80
2018-06-12T10:50:40.279Z,4.60
2018-06-12T10:53:10.294Z,4.63
2018-06-12T10:55:41.284Z,3.23
2018-06-12T10:58:11.108Z,7.03
2018-06-12T11:00:40.821Z,3.70
2018-06-12T11:03:13.867Z,6.33
2018-06-12T11:05:43.712Z,4.63
2018-06-12T11:08:14.299Z,4.50
2018-06-12T11:10:44.174Z,6.47
2018-06-12T11:13:14.237Z,6.00
2018-06-12T11:15:45.554Z,4.83
2018-06-12T11:18:15.743Z,3.90
2018-06-12T11:20:45.490Z,5.30
2018-06-12T11:23:15.337Z,4.13
2018-06-12T11:25:45.120Z,4.53
2018-06-12T11:28:16.656Z,5.73
2018-06-12T11:30:46.584Z,4.40
2018-06-12T11:33:21.020Z,6.40
2018-06-12T11:35:51.097Z,4.63
2018-06-12T11:38:21.242Z,5.13
2018-06-12T11:40:51.113Z,5.00
2018-06-12T11:43:20.985Z,5.37
2018-06-12T11:45:50.799Z,5.10
2018-06-12T11:48:20.625Z,4.23
2018-06-12T11:50:50.312Z,6.23
2018-06-12T11:53:21.188Z,5.20
2018-06-12T11:55:51.242Z,5.63
2018-06-12T11:58:20.944Z,5.67
2018-06-12T12:00:52.259Z,4.43
2018-06-12T12:03:22.034Z,3.70
2018-06-12T12:05:51.893Z,4.87
2018-06-12T12:08:21.678Z,4.67
2018-06-12T12:10:51.853Z,3.87
2018-06-12T12:13:23.332Z,5.67
2018-06-12T12:15:53.055Z,4.90
2018-06-12T12:18:22.807Z,4.40
2018-06-12T12:20:52.878Z,3.43
2018-06-12T12:23:23.077Z,3.57
2018-06-12T12:25:52.852Z,4.57
2018-06-12T12:28:22.706Z,3.53
2018-06-12T12:30:52.766Z,4.60
2018-06-12T12:33:23.109Z,4.00
2018-06-12T12:35:52.769Z,4.30
2018-06-12T12:38:22.635Z,4.23
2018-06-12T12:40:52.444Z,3.50
2018-06-12T12:43:22.906Z,3.87
2018-06-12T12:45:53.211Z,3.70
2018-06-12T12:48:23.004Z,6.40
2018-06-12T12:50:52.726Z,4.97
2018-06-12T12:53:23.009Z,3.87
2018-06-12T12:55:52.786Z,3.17
2018-06-12T12:58:22.577Z,3.90
2018-06-12T13:00:52.294Z,2.90
2018-06-12T13:03:22.093Z,4.63
2018-06-12T13:05:52.425Z,4.50
2018-06-12T13:08:22.207Z,3.23
2018-06-12T13:10:51.908Z,5.47
2018-06-12T13:13:22.457Z,4.07
2018-06-12T13:15:54.059Z,3.60
2018-06-12T13:18:26.309Z,3.57
2018-06-12T13:20:56.958Z,3.17
2018-06-12T13:23:29.073Z,4.93
2018-06-12T13:26:03.595Z,3.17
2018-06-12T13:28:36.227Z,3.55
2018-06-12T13:31:08.203Z,3.27
2018-06-12T13:33:39.794Z,5.72
2018-06-12T13:36:13.407Z,3.60
2018-06-12T13:38:46.779Z,5.10
2018-06-12T13:41:18.625Z,5.13
2018-06-12T13:43:55.430Z,4.15
2018-06-12T13:46:25.477Z,3.50
2018-06-12T13:48:55.367Z,4.33
2018-06-12T13:51:25.478Z,5.42
2018-06-12T13:53:56.076Z,5.10
2018-06-12T13:56:25.789Z,3.87
2018-06-12T13:58:55.964Z,4.03
2018-06-12T14:01:25.655Z,3.70
2018-06-12T14:03:57.107Z,4.23
2018-06-12T14:06:31.216Z,3.20
2018-06-12T14:09:05.956Z,2.90
2018-06-12T14:11:36.384Z,4.13
2018-06-12T14:14:07.484Z,3.40
2018-06-12T14:16:37.281Z,3.57
2018-06-12T14:19:08.491Z,5.50
2018-06-12T14:21:38.772Z,3.10
2018-06-12T14:24:08.436Z,4.37
2018-06-12T14:26:38.077Z,3.80
2018-06-12T14:29:08.487Z,4.37
2018-06-12T14:31:38.204Z,3.37
2018-06-12T14:34:07.615Z,3.37
2018-06-12T14:36:37.263Z,4.43
2018-06-12T14:39:10.704Z,3.03
2018-06-12T14:41:41.590Z,5.03
2018-06-12T14:44:12.239Z,3.70
2018-06-12T14:46:42.035Z,3.40
2018-06-12T14:49:12.806Z,3.53
2018-06-12T14:51:42.941Z,3.23
2018-06-12T14:54:13.017Z,4.60
2018-06-12T14:56:42.818Z,3.80
2018-06-12T14:59:12.677Z,4.10
2018-06-12T15:01:43.486Z,6.37
2018-06-12T15:04:13.791Z,4.27
2018-06-12T15:06:43.497Z,2.87
2018-06-12T15:09:14.037Z,3.43
2018-06-12T15:11:43.782Z,3.10
2018-06-12T15:14:13.525Z,4.10
2018-06-12T15:16:43.323Z,4.37
2018-06-12T15:19:14.066Z,3.17
2018-06-12T15:21:44.699Z,3.50
2018-06-12T15:24:14.608Z,3.20
2018-06-12T15:26:44.729Z,3.80
2018-06-12T15:29:14.456Z,4.10
2018-06-12T15:31:44.246Z,3.67
2018-06-12T15:34:14.597Z,5.93
2018-06-12T15:36:44.192Z,4.73
2018-06-12T15:39:15.648Z,2.80
2018-06-12T15:41:45.502Z,3.13
2018-06-12T15:44:16.360Z,3.70
2018-06-12T15:46:46.172Z,3.23
2018-06-12T15:49:17.703Z,3.33
2018-06-12T15:51:47.544Z,3.53
2018-06-12T15:54:17.906Z,4.33
2018-06-12T15:56:49.170Z,4.30
2018-06-12T15:59:19.875Z,4.37
2018-06-12T16:01:50.877Z,3.30
2018-06-12T16:04:20.675Z,4.20
2018-06-12T16:06:50.943Z,3.30
2018-06-12T16:09:21.535Z,3.37
2018-06-12T16:11:51.847Z,7.20
2018-06-12T16:14:22.372Z,4.93
2018-06-12T16:16:53.918Z,4.40
2018-06-12T16:19:25.615Z,3.53
2018-06-12T16:21:55.964Z,5.07
2018-06-12T16:24:26.763Z,4.30
2018-06-12T16:26:59.120Z,3.50
2018-06-12T16:29:28.978Z,4.03
2018-06-12T16:31:59.755Z,4.03
2018-06-12T16:34:31.104Z,4.10
2018-06-12T16:37:02.877Z,3.60
2018-06-12T16:39:33.600Z,5.97
2018-06-12T16:42:04.667Z,4.60
2018-06-12T16:44:36.883Z,5.90
2018-06-12T16:47:12.576Z,5.93
2018-06-12T16:49:44.474Z,3.33
2018-06-12T16:52:15.462Z,5.23
2018-06-12T16:54:46.099Z,6.43
2018-06-12T16:57:17.561Z,5.43
2018-06-12T16:59:47.978Z,4.83
2018-06-12T17:02:19.195Z,4.47
2018-06-12T17:04:49.022Z,7.57
2018-06-12T17:07:22.121Z,5.00
2018-06-12T17:09:52.435Z,5.70
2018-06-12T17:12:22.741Z,4.43
2018-06-12T17:14:52.463Z,3.67
2018-06-12T17:17:23.116Z,5.13
2018-06-12T17:19:54.091Z,4.30
2018-06-12T17:22:24.959Z,6.23
2018-06-12T17:24:55.852Z,5.20
2018-06-12T17:27:26.104Z,3.83
2018-06-12T17:29:56.094Z,5.03
2018-06-12T17:32:25.832Z,4.83
2018-06-12T17:34:55.648Z,4.83
2018-06-12T17:37:25.372Z,3.63
2018-06-12T17:39:55.308Z,3.80
2018-06-12T17:42:26.580Z,3.50
2018-06-12T17:44:58.072Z,4.13
2018-06-12T17:47:27.916Z,4.97
2018-06-12T17:49:59.245Z,4.03
2018-06-12T17:52:29.967Z,4.30
2018-06-12T17:55:00.356Z,5.37
2018-06-12T17:57:31.461Z,4.13
2018-06-12T18:00:01.717Z,5.67
2018-06-12T18:02:33.898Z,4.23
2018-06-12T18:05:04.279Z,6.03
2018-06-12T18:07:34.443Z,5.87
2018-06-12T18:10:09.426Z,4.57
2018-06-12T18:12:41.893Z,6.40
2018-06-12T18:15:13.002Z,6.17
2018-06-12T18:17:43.386Z,4.80
2018-06-12T18:20:13.228Z,3.57
2018-06-12T18:22:44.716Z,4.37
2018-06-12T18:25:15.609Z,4.30
2018-06-12T18:27:45.649Z,4.07
2018-06-12T18:30:15.959Z,5.70
2018-06-12T18:32:46.814Z,3.30
2018-06-12T18:35:17.995Z,4.97
2018-06-12T18:37:50.313Z,5.23
2018-06-12T18:40:20.607Z,5.53
2018-06-12T18:42:50.571Z,4.73
2018-06-12T18:45:21.610Z,3.90
2018-06-12T18:47:51.283Z,4.07
2018-06-12T18:50:21.951Z,5.77
2018-06-12T18:52:56.795Z,3.90
2018-06-12T18:55:27.992Z,5.10
2018-06-12T18:57:58.815Z,3.93
2018-06-12T19:00:28.877Z,3.93
2018-06-12T19:03:00.475Z,3.57
2018-06-12T19:05:30.498Z,3.97
2018-06-12T19:08:01.770Z,3.63
2018-06-12T19:10:33.113Z,4.17
2018-06-12T19:13:03.698Z,3.67
2018-06-12T19:15:35.178Z,5.27
2018-06-12T19:18:06.090Z,4.03
2018-06-12T19:20:37.544Z,4.97
2018-06-12T19:23:07.913Z,4.67
2018-06-12T19:25:37.913Z,4.40
2018-06-12T19:28:07.897Z,4.97
2018-06-12T19:30:37.978Z,4.33
2018-06-12T19:33:07.792Z,4.57
2018-06-12T19:35:37.450Z,3.50
2018-06-12T19:38:08.817Z,3.90
2018-06-12T19:40:38.610Z,3.60
2018-06-12T19:43:08.841Z,5.07
2018-06-12T19:45:39.518Z,3.83
2018-06-12T19:48:10.360Z,4.47
2018-06-12T19:50:40.352Z,5.27
2018-06-12T19:53:11.010Z,3.97
2018-06-12T19:55:41.268Z,3.83
2018-06-12T19:58:11.148Z,3.20
2018-06-12T20:00:41.687Z,3.90
2018-06-12T20:03:11.943Z,3.33
2018-06-12T20:05:44.012Z,3.50
2018-06-12T20:08:14.531Z,4.20
2018-06-12T20:10:45.510Z,4.00
2018-06-12T20:13:15.373Z,4.23
2018-06-12T20:15:45.078Z,3.37
2018-06-12T20:18:14.974Z,6.60
2018-06-12T20:20:46.327Z,4.53
2018-06-12T20:23:16.271Z,3.20
2018-06-12T20:25:46.251Z,3.53
2018-06-12T20:28:16.663Z,6.40
2018-06-12T20:30:46.465Z,2.70
2018-06-12T20:33:16.239Z,4.10
2018-06-12T20:35:46.089Z,3.30
2018-06-12T20:38:16.137Z,3.40
2018-06-12T20:40:46.407Z,3.70
2018-06-12T20:43:16.402Z,3.60
2018-06-12T20:45:46.628Z,3.60
2018-06-12T20:48:18.385Z,3.80
2018-06-12T20:50:48.183Z,2.83
2018-06-12T20:53:18.925Z,3.97
2018-06-12T20:55:48.735Z,3.50
2018-06-12T20:58:18.655Z,2.70
2018-06-12T21:00:48.792Z,2.87
2018-06-12T21:03:18.590Z,2.77
2018-06-12T21:05:48.307Z,3.47
2018-06-12T21:08:18.110Z,3.80
2018-06-12T21:10:48.233Z,4.50
2018-06-12T21:13:18.418Z,2.83
2018-06-12T21:15:49.165Z,2.67
2018-06-12T21:18:18.956Z,3.23
2018-06-12T21:20:48.772Z,3.27
2018-06-12T21:23:18.518Z,6.20
2018-06-12T21:25:48.309Z,3.63
2018-06-12T21:28:18.381Z,3.67
2018-06-12T21:30:48.815Z,3.57
2018-06-12T21:33:19.520Z,3.77
2018-06-12T21:35:50.072Z,4.23
2018-06-12T21:38:19.779Z,3.60
2018-06-12T21:40:49.507Z,4.07
2018-06-12T21:43:19.587Z,3.37
2018-06-12T21:45:49.909Z,4.03
2018-06-12T21:48:20.456Z,4.60
2018-06-12T21:50:50.184Z,3.80
2018-06-12T21:53:20.707Z,3.30
2018-06-12T21:55:50.546Z,2.80
2018-06-12T21:58:20.603Z,2.97
2018-06-12T22:00:50.514Z,3.90
2018-06-12T22:03:20.345Z,4.40
2018-06-12T22:05:53.421Z,3.03
2018-06-12T22:08:24.947Z,3.33
2018-06-12T22:12:24.095Z,3.60
2018-06-12T22:14:53.778Z,3.83
2018-06-12T22:17:24.403Z,3.37
2018-06-12T22:19:54.256Z,2.90
2018-06-12T22:22:24.936Z,3.70
2018-06-12T22:24:54.656Z,3.70
2018-06-12T22:27:24.263Z,3.80
2018-06-12T22:29:54.922Z,3.00
2018-06-12T22:32:24.601Z,3.80
2018-06-12T22:34:55.472Z,3.50
2018-06-12T22:37:25.164Z,4.83
2018-06-12T22:39:56.264Z,3.43
2018-06-12T22:42:25.850Z,3.70
2018-06-12T22:44:55.607Z,4.20
2018-06-12T22:47:25.309Z,4.27
2018-06-12T22:49:54.935Z,3.40
2018-06-12T22:52:24.541Z,3.63
2018-06-12T22:54:54.204Z,3.70
2018-06-12T22:57:23.859Z,3.93
2018-06-12T22:59:53.739Z,3.30
2018-06-12T23:02:23.385Z,2.93
2018-06-12T23:04:53.415Z,2.70
2018-06-12T23:07:24.021Z,4.43
2018-06-12T23:09:53.820Z,3.70
2018-06-12T23:12:25.674Z,3.73
2018-06-12T23:14:56.776Z,2.93
2018-06-12T23:17:26.621Z,4.67
2018-06-12T23:20:13.184Z,2.87
2018-06-12T23:22:43.494Z,2.50
2018-06-12T23:25:13.395Z,3.37
2018-06-12T23:27:42.782Z,3.70
2018-06-12T23:30:13.324Z,2.90
2018-06-12T23:32:43.010Z,3.13
2018-06-12T23:35:12.902Z,4.63
2018-06-12T23:37:42.754Z,4.97
2018-06-12T23:40:12.454Z,4.33
2018-06-12T23:42:42.835Z,2.97
2018-06-12T23:45:12.848Z,3.77
2018-06-12T23:47:43.052Z,3.50
2018-06-12T23:50:13.403Z,2.93
2018-06-12T23:52:43.860Z,3.13
2018-06-12T23:55:13.747Z,4.03
2018-06-12T23:57:43.732Z,3.20
